Time;durP1;ratioP1;P1;durP2;ratioP2;P2;SDS_P1;SDS_P2;PMS_P1;PMS_P2;Temp;Humidity;BMP_temperature;BMP_pressure;BME280_temperature;BME280_humidity;BME280_pressure;Samples;Min_cycle;Max_cycle;Signal;HPM_P1;HPM_P2
2022/08/02 00:00:43;;;;;;;;;26.00;25.00;;;;;26.20;53.07;98720.50;6266436;27;96275;-60
2022/08/02 00:03:46;;;;;;;;;30.40;28.80;;;;;26.17;53.10;98719.25;6264823;27;96584;-58
2022/08/02 00:06:51;;;;;;;;;20.80;20.00;;;;;26.16;53.00;98719.56;6265188;27;97526;-59
2022/08/02 00:09:55;;;;;;;;;23.00;23.00;;;;;26.13;53.34;98711.94;6270692;27;97786;-61
2022/08/02 00:12:59;;;;;;;;;25.40;24.60;;;;;26.13;53.37;98717.47;6275559;27;96603;-58
2022/08/02 00:16:02;;;;;;;;;23.20;22.20;;;;;26.12;53.26;98724.13;6290307;27;96232;-60
2022/08/02 00:19:06;;;;;;;;;23.60;22.60;;;;;26.12;53.22;98722.16;6291241;27;96567;-59
2022/08/02 00:22:13;;;;;;;;;23.00;22.00;;;;;26.10;53.25;98720.84;6289347;27;96832;-60
2022/08/02 00:25:17;;;;;;;;;24.40;23.00;;;;;26.10;53.60;98729.97;6290456;27;96544;-60
2022/08/02 00:28:20;;;;;;;;;23.40;22.60;;;;;26.09;53.27;98731.13;6271722;27;99165;-59
2022/08/02 00:31:30;;;;;;;;;27.00;26.00;;;;;25.87;53.52;98698.16;6256931;27;96764;-59
2022/08/02 00:34:33;;;;;;;;;25.20;24.20;;;;;26.08;53.46;98731.44;6290605;27;97456;-63
2022/08/02 00:37:41;;;;;;;;;22.60;21.60;;;;;26.08;53.41;98731.44;6290093;27;97135;-61
2022/08/02 00:40:47;;;;;;;;;26.25;25.25;;;;;26.06;53.60;98734.53;6289879;27;96589;-59
2022/08/02 00:43:52;;;;;;;;;22.75;22.00;;;;;26.05;53.59;98734.84;6269387;27;96480;-56
2022/08/02 00:46:56;;;;;;;;;21.25;20.75;;;;;26.03;53.70;98737.13;6289989;27;96424;-61
2022/08/02 00:49:59;;;;;;;;;26.20;25.20;;;;;25.99;53.64;98730.66;6289368;27;97485;-60
2022/08/02 00:53:05;;;;;;;;;21.00;21.00;;;;;26.02;53.87;98743.78;6289730;27;96787;-61
2022/08/02 00:56:08;;;;;;;;;27.80;27.00;;;;;26.02;53.92;98747.38;6289090;27;97406;-60
2022/08/02 00:59:11;;;;;;;;;28.50;28.00;;;;;26.00;53.92;98749.63;6265540;27;97076;-61
2022/08/02 01:02:17;;;;;;;;;22.00;22.00;;;;;25.98;54.05;98746.41;6267133;27;97078;-59
2022/08/02 01:05:20;;;;;;;;;25.00;24.40;;;;;25.97;54.04;98750.28;6287852;27;98106;-59
2022/08/02 01:08:25;;;;;;;;;27.40;26.40;;;;;25.93;54.24;98749.31;6276588;27;97529;-59
2022/08/02 01:11:35;;;;;;;;;24.00;23.20;;;;;25.92;54.50;98755.97;6269799;27;96861;-59
2022/08/02 01:14:38;;;;;;;;;24.00;23.00;;;;;25.92;54.39;98757.94;6289192;27;96416;-60
2022/08/02 01:17:49;;;;;;;;;25.00;24.00;;;;;25.90;54.49;98763.00;6287354;27;97020;-59
2022/08/02 01:21:17;;;;;;;;;18.40;18.20;;;;;25.88;54.63;98769.66;6263961;27;97465;-59
2022/08/02 01:24:51;;;;;;;;;22.20;21.20;;;;;25.87;54.66;98762.50;6263945;27;98010;-61
2022/08/02 01:28:26;;;;;;;;;25.40;24.60;;;;;25.85;55.10;98770.28;6263332;27;96620;-59
2022/08/02 01:31:34;;;;;;;;;26.75;25.00;;;;;25.86;54.94;98771.09;6266203;27;98813;-58
2022/08/02 01:34:41;;;;;;;;;24.60;24.00;;;;;25.84;55.50;98771.44;6284920;27;97346;-61
2022/08/02 01:37:51;;;;;;;;;23.75;22.75;;;;;25.84;55.17;98779.72;6288621;27;96345;-60
2022/08/02 01:40:57;;;;;;;;;22.75;20.75;;;;;25.83;55.27;98772.56;6288550;27;96429;-61
2022/08/02 01:44:04;;;;;;;;;25.75;24.00;;;;;25.84;55.35;98779.72;6284196;27;97290;-58
2022/08/02 01:47:12;;;;;;;;;24.80;22.80;;;;;25.84;55.28;98770.63;6273003;27;97899;-62
2022/08/02 01:50:21;;;;;;;;;26.00;24.00;;;;;25.86;55.36;98773.84;6282906;27;98267;-60
2022/08/02 01:53:30;;;;;;;;;25.20;24.20;;;;;25.86;55.76;98782.13;6287030;27;97042;-57
2022/08/02 01:56:35;;;;;;;;;23.20;22.20;;;;;25.85;55.80;98778.56;6288457;27;97380;-58
2022/08/02 01:59:43;;;;;;;;;27.40;25.40;;;;;25.83;55.92;98772.56;6288041;27;96583;-58
2022/08/02 02:02:49;;;;;;;;;22.50;22.50;;;;;25.84;56.18;98771.44;6283941;27;96405;-60
2022/08/02 02:05:56;;;;;;;;;22.00;20.00;;;;;25.71;56.17;98757.75;6288648;27;97472;-59
2022/08/02 02:09:03;;;;;;;;;23.20;23.20;;;;;25.83;56.20;98785.56;6284197;27;97464;-58
2022/08/02 02:12:08;;;;;;;;;22.00;21.00;;;;;25.82;56.12;98770.94;6262836;27;97508;-57
2022/08/02 02:15:18;;;;;;;;;25.00;22.60;;;;;25.83;56.32;98782.78;6263034;27;97384;-61
2022/08/02 02:18:24;;;;;;;;;25.80;25.20;;;;;25.80;56.37;98781.47;6271916;27;97401;-58
2022/08/02 02:21:27;;;;;;;;;27.25;27.00;;;;;25.79;56.63;98768.84;6262898;27;97426;-60
2022/08/02 02:24:33;;;;;;;;;23.00;23.00;;;;;25.80;56.72;98772.41;6252469;27;97126;-61
2022/08/02 02:27:46;;;;;;;;;21.00;20.00;;;;;25.80;56.65;98772.41;6269454;27;96727;-63
2022/08/02 02:30:55;;;;;;;;;22.00;20.40;;;;;25.81;56.69;98774.81;6285911;27;96782;-64
2022/08/02 02:34:02;;;;;;;;;25.00;24.00;;;;;25.82;56.65;98784.75;6274818;27;96659;-63
2022/08/02 02:37:12;;;;;;;;;21.00;20.25;;;;;25.83;56.67;98785.56;6287032;27;97407;-62
2022/08/02 02:40:16;;;;;;;;;23.00;22.40;;;;;25.84;56.83;98782.47;6265769;27;97569;-61
2022/08/02 02:43:21;;;;;;;;;25.20;24.80;;;;;25.86;56.69;98788.47;6261233;27;96438;-59
2022/08/02 02:46:27;;;;;;;;;21.60;19.40;;;;;25.86;56.61;98785.72;6261876;27;97420;-62
2022/08/02 02:49:32;;;;;;;;;23.40;23.40;;;;;25.88;56.68;98785.41;6262332;27;96505;-58
2022/08/02 02:52:37;;;;;;;;;22.00;20.00;;;;;25.88;56.81;98785.41;6279155;27;96845;-61
2022/08/02 02:55:43;;;;;;;;;23.00;22.00;;;;;25.90;56.85;98785.09;6286435;27;96561;-57
2022/08/02 02:59:05;;;;;;;;;21.50;21.00;;;;;25.91;57.22;98792.22;6287370;27;97482;-59
2022/08/02 03:02:11;;;;;;;;;23.50;22.75;;;;;25.93;56.81;98792.72;6284931;27;96388;-58
2022/08/02 03:05:15;;;;;;;;;23.00;21.00;;;;;25.94;56.55;98791.56;6286781;27;97526;-58
2022/08/02 03:08:19;;;;;;;;;18.50;18.00;;;;;25.95;56.47;98795.97;6291687;27;96780;-60
2022/08/02 03:11:28;;;;;;;;;19.50;18.50;;;;;25.98;56.58;98792.56;6292282;27;96456;-57
2022/08/02 03:14:32;;;;;;;;;21.75;21.00;;;;;26.00;56.55;98791.06;6292113;27;97454;-62
2022/08/02 03:17:42;;;;;;;;;25.80;23.40;;;;;26.00;56.57;98796.59;6275539;27;97304;-60
2022/08/02 03:20:47;;;;;;;;;23.40;23.40;;;;;26.00;56.59;98793.06;6266040;27;96839;-58
2022/08/02 03:23:51;;;;;;;;;23.00;22.00;;;;;25.99;56.51;98797.75;6276699;27;96621;-58
2022/08/02 03:26:54;;;;;;;;;25.00;23.00;;;;;25.99;56.82;98792.25;6290379;27;96939;-56
2022/08/02 03:29:58;;;;;;;;;25.60;24.60;;;;;25.99;56.69;98796.94;6285080;27;97103;-58
2022/08/02 03:33:02;;;;;;;;;26.00;25.00;;;;;25.97;56.59;98800.03;6277583;27;97467;-64
2022/08/02 03:36:16;;;;;;;;;23.00;21.00;;;;;25.97;56.90;98804.72;6288456;27;96652;-60
2022/08/02 03:39:20;;;;;;;;;28.40;27.60;;;;;25.96;56.93;98797.56;6281430;27;97052;-60
2022/08/02 03:42:25;;;;;;;;;27.00;25.40;;;;;25.97;56.84;98797.25;6284238;27;97488;-61
2022/08/02 03:45:29;;;;;;;;;28.00;25.00;;;;;25.81;56.96;98779.53;6288995;27;97429;-57
2022/08/02 03:48:36;;;;;;;;;26.25;24.75;;;;;25.95;56.80;98813.34;6282585;27;97438;-61
2022/08/02 03:51:40;;;;;;;;;30.00;24.50;;;;;25.95;57.14;98813.34;6291532;27;97521;-58
2022/08/02 03:54:43;;;;;;;;;31.40;27.60;;;;;25.95;57.12;98809.78;6286453;27;97306;-63
2022/08/02 03:57:48;;;;;;;;;35.00;31.00;;;;;25.81;57.17;98798.88;6276521;27;96904;-60
2022/08/02 04:00:53;;;;;;;;;27.50;25.50;;;;;25.96;56.93;98825.19;6286446;27;96785;-56
2022/08/02 04:03:57;;;;;;;;;27.00;24.75;;;;;25.95;56.99;98831.88;6289438;27;98542;-59
2022/08/02 04:07:01;;;;;;;;;29.50;27.00;;;;;25.71;56.93;98805.50;6277882;27;96538;-62
2022/08/02 04:10:10;;;;;;;;;32.00;29.00;;;;;25.90;57.29;98835.63;6246147;27;97104;-60
2022/08/02 04:13:13;;;;;;;;;33.25;30.00;;;;;25.97;57.37;98846.16;6274853;27;97293;-61
2022/08/02 04:16:21;;;;;;;;;29.25;26.00;;;;;25.99;57.09;98853.00;6285430;27;97575;-62
2022/08/02 04:19:38;;;;;;;;;29.00;26.00;;;;;26.00;57.22;98851.06;6273794;27;97534;-57
2022/08/02 04:22:49;;;;;;;;;28.50;25.00;;;;;25.93;57.10;98845.19;6286572;27;97443;-63
2022/08/02 04:25:53;;;;;;;;;33.40;29.00;;;;;26.02;57.31;98848.78;6280888;27;97033;-61
2022/08/02 04:28:59;;;;;;;;;35.67;30.67;;;;;26.02;57.16;98857.06;6266012;27;97786;-58
2022/08/02 04:32:05;;;;;;;;;28.75;25.75;;;;;26.02;57.04;98851.53;6264402;27;96529;-61
2022/08/02 04:35:10;;;;;;;;;28.20;25.00;;;;;25.99;57.24;98850.25;6272240;27;96643;-60
2022/08/02 04:38:24;;;;;;;;;27.20;25.20;;;;;25.98;57.13;98847.78;6286052;27;96996;-61
2022/08/02 04:41:38;;;;;;;;;28.75;26.25;;;;;26.00;57.12;98857.38;6275061;27;97448;-59
2022/08/02 04:44:45;;;;;;;;;29.75;25.75;;;;;26.03;57.41;98858.69;6286301;27;97181;-59
2022/08/02 04:47:49;;;;;;;;;28.00;24.80;;;;;26.05;57.44;98861.94;6289743;27;96746;-59
2022/08/02 04:51:07;;;;;;;;;30.00;27.00;;;;;26.05;57.00;98857.22;6288627;27;97670;-59
2022/08/02 04:54:11;;;;;;;;;31.40;26.40;;;;;26.06;56.94;98860.78;6281946;27;97576;-61
2022/08/02 05:00:35;;;;;;;;;30.60;28.60;;;;;26.08;56.75;98855.78;6286858;27;97419;-61
2022/08/02 05:03:38;;;;;;;;;32.40;29.40;;;;;26.09;56.88;98866.50;6284988;27;96650;-60
2022/08/02 05:06:43;;;;;;;;;33.00;30.00;;;;;26.08;56.95;98872.34;6264363;27;97386;-57
2022/08/02 05:09:47;;;;;;;;;30.80;26.80;;;;;26.09;56.84;98874.78;6263029;27;97141;-62
2022/08/02 05:12:50;;;;;;;;;40.80;34.40;;;;;26.12;56.99;98878.84;6265849;27;96612;-58
2022/08/02 05:15:53;;;;;;;;;24.00;20.00;;;;;26.14;56.67;98884.88;6262346;27;96593;-59
2022/08/02 05:18:57;;;;;;;;;29.25;26.25;;;;;26.18;56.70;98880.31;6261584;27;97510;-61
2022/08/02 05:22:01;;;;;;;;;34.75;30.00;;;;;26.20;56.64;98881.59;6266382;27;97991;-61
2022/08/02 05:25:06;;;;;;;;;30.40;26.60;;;;;26.25;56.33;98884.25;6273937;27;97230;-61
2022/08/02 05:28:09;;;;;;;;;28.20;26.80;;;;;26.32;56.09;98882.97;6263565;27;96967;-58
2022/08/02 05:31:13;;;;;;;;;36.00;32.00;;;;;26.34;55.74;98884.25;6263878;27;97351;-59
2022/08/02 05:34:17;;;;;;;;;29.75;28.50;;;;;26.35;55.44;98888.63;6263482;27;96732;-59
2022/08/02 05:37:22;;;;;;;;;30.60;27.00;;;;;26.42;55.63;98890.94;6263222;27;97301;-59
2022/08/02 05:40:25;;;;;;;;;35.00;32.00;;;;;26.46;55.76;98894.66;6263239;27;97417;-59
2022/08/02 05:43:30;;;;;;;;;26.20;24.20;;;;;26.48;55.50;98893.22;6286821;27;96842;-58
2022/08/02 05:46:33;;;;;;;;;28.00;23.50;;;;;26.53;55.10;98903.28;6288902;27;96530;-61
2022/08/02 05:49:37;;;;;;;;;22.80;21.80;;;;;26.55;54.59;98903.75;6288410;27;96703;-60
2022/08/02 05:52:46;;;;;;;;;34.00;31.00;;;;;26.56;54.61;98906.22;6288562;27;96937;-61
2022/08/02 05:56:01;;;;;;;;;25.00;23.60;;;;;26.55;54.74;98903.75;6288678;27;96908;-62
2022/08/02 05:59:18;;;;;;;;;24.00;20.00;;;;;26.53;54.74;98900.53;6288273;27;96499;-59
2022/08/02 06:02:29;;;;;;;;;32.00;28.60;;;;;26.57;54.43;98899.53;6273697;27;97437;-62
2022/08/02 06:05:35;;;;;;;;;25.00;24.00;;;;;26.58;54.77;98898.41;6274994;27;97990;-65
2022/08/02 06:08:43;;;;;;;;;25.00;21.50;;;;;26.61;54.55;98900.50;6273442;27;96490;-61
2022/08/02 06:11:52;;;;;;;;;28.20;24.00;;;;;26.64;54.38;98899.03;6272854;27;98388;-60
2022/08/02 06:15:14;;;;;;;;;28.80;25.80;;;;;26.65;54.52;98901.47;6274879;27;97096;-60
2022/08/02 06:18:19;;;;;;;;;25.00;24.00;;;;;26.71;54.50;98907.66;6272891;27;97467;-60
2022/08/02 06:21:31;;;;;;;;;27.33;26.33;;;;;26.68;54.25;98922.16;6284401;27;96991;-58
2022/08/02 06:24:56;;;;;;;;;29.00;25.40;;;;;26.78;53.56;98918.25;6288491;27;97059;-59
2022/08/02 06:28:00;;;;;;;;;27.67;25.00;;;;;26.85;53.47;98918.53;6280810;27;97436;-57
2022/08/02 06:31:05;;;;;;;;;24.00;22.00;;;;;26.97;53.28;98930.59;6254975;27;98206;-56
2022/08/02 06:34:09;;;;;;;;;29.50;27.75;;;;;27.08;52.88;98928.28;6274224;27;96884;-58
2022/08/02 06:37:24;;;;;;;;;30.25;26.25;;;;;27.18;51.83;98933.47;6272509;27;96569;-64
2022/08/02 06:40:32;;;;;;;;;26.60;25.00;;;;;27.25;52.46;98935.75;6270189;27;97410;-57
2022/08/02 06:43:45;;;;;;;;;28.60;25.20;;;;;27.32;52.26;98945.16;6282173;27;97126;-60
2022/08/02 06:46:49;;;;;;;;;23.60;19.60;;;;;27.39;51.94;98941.88;6281701;27;97465;-59
2022/08/02 06:50:13;;;;;;;;;22.00;20.00;;;;;27.45;51.71;98946.91;6274743;27;98064;-59
2022/08/02 06:53:16;;;;;;;;;22.00;21.00;;;;;27.50;51.04;98946.78;6274433;27;97130;-62
2022/08/02 06:56:21;;;;;;;;;28.20;24.20;;;;;27.57;51.43;98949.00;6272312;27;97212;-59
2022/08/02 06:59:25;;;;;;;;;27.50;25.00;;;;;27.67;50.90;98951.41;6270960;27;97358;-60
2022/08/02 07:02:28;;;;;;;;;27.00;24.50;;;;;27.73;50.59;98947.31;6271314;27;96698;-58
2022/08/02 07:05:32;;;;;;;;;25.00;22.00;;;;;27.85;49.91;98943.84;6271805;27;98654;-59
2022/08/02 07:08:37;;;;;;;;;24.80;21.80;;;;;27.97;49.37;98955.81;6258644;27;97478;-59
2022/08/02 07:11:41;;;;;;;;;24.50;22.00;;;;;28.08;49.47;98950.72;6275840;27;97029;-60
2022/08/02 07:14:45;;;;;;;;;21.50;19.00;;;;;28.25;49.09;98952.59;6252147;27;97388;-61
2022/08/02 07:17:48;;;;;;;;;28.50;27.50;;;;;28.39;48.56;98953.16;6268153;27;97517;-58
2022/08/02 07:20:52;;;;;;;;;27.00;25.00;;;;;28.40;48.47;98952.81;6273073;27;97577;-63
2022/08/02 07:23:55;;;;;;;;;22.00;22.00;;;;;28.55;48.32;98951.38;6272495;27;96769;-60
2022/08/02 07:27:01;;;;;;;;;26.75;24.25;;;;;28.59;47.39;98949.56;6273990;27;96573;-61
2022/08/02 07:30:13;;;;;;;;;19.20;18.40;;;;;28.70;47.55;98949.97;6272298;27;96438;-60
2022/08/02 07:33:17;;;;;;;;;20.00;19.00;;;;;28.92;47.17;98955.19;6272404;27;96818;-58
2022/08/02 07:36:40;;;;;;;;;20.00;19.00;;;;;29.11;46.25;98963.00;6282693;27;96925;-58
2022/08/02 07:39:46;;;;;;;;;24.50;21.50;;;;;29.27;46.88;98966.75;6285748;27;96577;-61
2022/08/02 07:42:53;;;;;;;;;21.00;20.00;;;;;29.38;45.95;98969.91;6270490;27;96966;-60
2022/08/02 07:46:04;;;;;;;;;21.40;20.60;;;;;29.44;45.34;98961.03;6273011;27;97063;-57
2022/08/02 07:49:08;;;;;;;;;21.60;20.00;;;;;29.51;45.35;98958.50;6261312;27;96945;-59
2022/08/02 07:52:11;;;;;;;;;21.75;20.75;;;;;29.65;45.70;98963.72;6261799;27;96395;-60
2022/08/02 07:55:17;;;;;;;;;25.50;23.25;;;;;29.79;45.32;98953.09;6268426;27;96598;-61
2022/08/02 07:58:22;;;;;;;;;26.00;24.00;;;;;29.88;44.87;98955.75;6276712;27;96978;-59
2022/08/02 08:01:25;;;;;;;;;23.00;22.00;;;;;30.00;44.87;98958.56;6277011;27;96741;-62
2022/08/02 08:04:29;;;;;;;;;27.00;25.40;;;;;30.09;44.84;98962.84;6275065;27;97583;-64
2022/08/02 08:07:32;;;;;;;;;20.60;19.00;;;;;30.22;44.53;98960.88;6274828;27;97522;-61
2022/08/02 08:10:35;;;;;;;;;20.00;19.00;;;;;30.35;44.39;98954.09;6272047;27;97498;-60
2022/08/02 08:13:40;;;;;;;;;21.00;20.00;;;;;30.48;43.69;98963.28;6264865;27;96902;-62
2022/08/02 08:16:44;;;;;;;;;19.00;18.60;;;;;30.58;43.52;98960.03;6279223;27;96573;-59
2022/08/02 08:19:47;;;;;;;;;21.00;20.60;;;;;30.71;42.97;98958.81;6264968;27;97301;-58
2022/08/02 08:22:54;;;;;;;;;19.00;18.00;;;;;30.83;42.35;98967.13;6265085;27;97834;-62
2022/08/02 08:25:57;;;;;;;;;18.75;17.75;;;;;30.89;42.27;98964.88;6265268;27;97204;-61
2022/08/02 08:29:05;;;;;;;;;25.00;23.60;;;;;30.98;42.28;98966.34;6265174;27;96513;-58
2022/08/02 08:32:08;;;;;;;;;18.50;16.75;;;;;31.10;42.23;98970.28;6264843;27;97419;-60
2022/08/02 08:35:16;;;;;;;;;20.40;19.00;;;;;31.22;42.74;98964.66;6265016;27;97017;-64
2022/08/02 08:38:20;;;;;;;;;20.60;18.80;;;;;31.36;41.49;98963.06;6265203;27;96685;-61
2022/08/02 08:41:25;;;;;;;;;20.00;19.00;;;;;31.51;41.14;98967.03;6264991;27;96605;-61
2022/08/02 08:44:33;;;;;;;;;16.00;14.00;;;;;31.62;40.73;98957.00;6264904;27;96813;-64
2022/08/02 08:47:41;;;;;;;;;18.60;17.60;;;;;31.79;40.85;98962.22;6264888;27;97124;-61
2022/08/02 08:50:50;;;;;;;;;19.40;18.40;;;;;31.94;39.91;98968.16;6265037;27;96456;-59
2022/08/02 08:53:56;;;;;;;;;17.00;14.50;;;;;32.02;39.61;98958.78;6264561;27;97546;-65
2022/08/02 08:57:00;;;;;;;;;16.60;15.60;;;;;32.09;39.48;98962.56;6264910;27;97048;-61
2022/08/02 09:00:06;;;;;;;;;15.00;14.40;;;;;32.20;39.32;98966.44;6264576;27;96898;-59
2022/08/02 09:03:10;;;;;;;;;18.00;17.00;;;;;32.32;39.25;98964.69;6264464;27;97039;-60
2022/08/02 09:06:13;;;;;;;;;18.80;18.20;;;;;32.37;38.92;98959.63;6267244;27;96420;-62
2022/08/02 09:09:16;;;;;;;;;17.00;15.80;;;;;32.43;38.70;98962.97;6280438;27;97044;-60
2022/08/02 09:12:23;;;;;;;;;19.00;18.40;;;;;32.46;38.58;98967.78;6289767;27;96964;-63
2022/08/02 09:15:28;;;;;;;;;16.00;15.00;;;;;32.48;38.59;98971.84;6290062;27;97069;-59
2022/08/02 09:18:32;;;;;;;;;14.50;14.50;;;;;32.51;38.58;98976.69;6289776;27;97572;-62
2022/08/02 09:21:40;;;;;;;;;15.00;13.00;;;;;32.55;38.19;98985.94;6269768;27;97832;-56
2022/08/02 09:24:46;;;;;;;;;14.00;14.00;;;;;32.49;38.07;98979.06;6289850;27;97448;-59
2022/08/02 09:27:50;;;;;;;;;13.75;12.25;;;;;32.55;37.55;98982.34;6289590;27;97921;-60
2022/08/02 09:30:56;;;;;;;;;15.00;14.00;;;;;32.59;37.99;98974.88;6289268;27;96365;-61
2022/08/02 09:34:00;;;;;;;;;13.00;13.00;;;;;32.71;38.02;98973.97;6289117;27;96692;-58
2022/08/02 09:37:03;;;;;;;;;12.00;11.20;;;;;32.76;37.58;98982.03;6288006;27;97202;-62
2022/08/02 09:40:09;;;;;;;;;11.80;10.80;;;;;32.80;37.07;98978.16;6289052;27;97570;-59
2022/08/02 09:43:13;;;;;;;;;14.25;13.50;;;;;32.91;37.18;98970.81;6268069;27;97197;-61
2022/08/02 09:46:19;;;;;;;;;14.00;13.60;;;;;33.04;37.45;98977.03;6263845;27;97610;-61
2022/08/02 09:49:26;;;;;;;;;14.40;13.00;;;;;33.18;37.24;98969.00;6271949;27;97040;-61
2022/08/02 09:52:31;;;;;;;;;12.00;11.00;;;;;33.26;36.77;98984.72;6272905;27;97082;-60
2022/08/02 09:55:55;;;;;;;;;11.00;11.00;;;;;33.26;36.59;98972.72;6275582;27;97425;-62
2022/08/02 09:59:09;;;;;;;;;10.40;10.00;;;;;33.24;36.74;98964.69;6276635;27;97332;-58
2022/08/02 10:02:16;;;;;;;;;12.50;10.75;;;;;33.20;35.57;98966.63;6270479;27;97447;-63
2022/08/02 10:05:30;;;;;;;;;10.50;10.25;;;;;33.22;36.01;98969.88;6275862;27;97510;-59
2022/08/02 10:08:44;;;;;;;;;10.00;10.00;;;;;33.37;35.85;98954.19;6271674;27;98151;-57
2022/08/02 10:11:51;;;;;;;;;12.25;12.25;;;;;33.56;35.84;98959.72;6274643;27;97483;-60
2022/08/02 10:14:55;;;;;;;;;11.80;10.80;;;;;33.74;34.47;98948.84;6270758;27;96904;-61
2022/08/02 10:18:00;;;;;;;;;11.50;11.00;;;;;33.91;35.28;98951.16;6274867;27;96643;-61
2022/08/02 10:21:29;;;;;;;;;11.00;11.00;;;;;34.07;35.03;98940.59;6275228;27;96548;-63
2022/08/02 10:24:36;;;;;;;;;13.40;12.60;;;;;34.17;33.06;98958.75;6285317;27;96992;-59
2022/08/02 10:27:40;;;;;;;;;13.00;12.00;;;;;34.18;32.68;98952.81;6285324;27;96689;-59
2022/08/02 10:31:07;;;;;;;;;15.00;15.00;;;;;34.16;33.52;98929.94;6288420;27;97457;-61
2022/08/02 10:34:17;;;;;;;;;14.00;13.00;;;;;34.28;33.31;98935.38;6288112;27;96525;-64
2022/08/02 10:37:22;;;;;;;;;15.50;14.50;;;;;34.31;33.41;98953.38;6288115;27;96908;-58
2022/08/02 10:40:42;;;;;;;;;16.00;15.00;;;;;34.16;32.98;98929.94;6288404;27;96418;-58
2022/08/02 10:43:48;;;;;;;;;15.00;14.50;;;;;34.15;32.60;98944.34;6288100;27;97465;-61
2022/08/02 10:46:53;;;;;;;;;14.60;14.60;;;;;34.13;33.35;98955.09;6271190;27;97152;-59
2022/08/02 10:49:59;;;;;;;;;17.60;17.00;;;;;34.22;33.71;98945.25;6284936;27;97583;-59
2022/08/02 10:53:24;;;;;;;;;13.00;13.00;;;;;34.32;33.92;98936.22;6286317;27;96615;-63
2022/08/02 10:56:48;;;;;;;;;17.00;17.00;;;;;34.41;33.71;98937.91;6288521;27;97418;-61
2022/08/02 10:59:55;;;;;;;;;16.00;15.00;;;;;34.50;33.69;98939.28;6288156;27;97550;-57
2022/08/02 11:02:58;;;;;;;;;15.40;14.40;;;;;34.54;32.43;98939.31;6265977;27;97473;-60
2022/08/02 11:06:04;;;;;;;;;13.80;13.80;;;;;34.49;32.25;98928.44;6262362;27;96998;-62
2022/08/02 11:09:27;;;;;;;;;25.00;24.00;;;;;34.57;32.77;98944.16;6262554;27;96406;-58
2022/08/02 11:12:58;;;;;;;;;17.25;16.75;;;;;34.51;32.79;98945.66;6262309;27;96546;-60
2022/08/02 11:16:04;;;;;;;;;17.75;16.50;;;;;34.32;32.63;98924.22;6271026;27;97591;-60
2022/08/02 11:19:13;;;;;;;;;14.00;13.20;;;;;34.52;32.88;98944.47;6274291;27;97549;-60
2022/08/02 11:22:18;;;;;;;;;14.20;13.20;;;;;34.64;33.15;98935.84;6268996;27;97023;-59
2022/08/02 11:25:32;;;;;;;;;14.20;12.80;;;;;34.71;31.42;98935.97;6262199;27;97552;-59
2022/08/02 11:28:55;;;;;;;;;15.20;15.20;;;;;34.75;31.96;98936.81;6266584;27;96743;-57
2022/08/02 11:31:59;;;;;;;;;17.40;16.60;;;;;34.86;32.17;98929.34;6266243;27;97563;-58
2022/08/02 11:35:03;;;;;;;;;21.00;19.00;;;;;34.94;32.87;98933.06;6265460;27;97785;-58
2022/08/02 11:38:17;;;;;;;;;18.00;18.00;;;;;35.01;31.95;98933.94;6276789;27;97459;-61
2022/08/02 11:41:22;;;;;;;;;20.40;19.60;;;;;35.02;30.98;98954.34;6276070;27;97491;-60
2022/08/02 11:44:47;;;;;;;;;19.75;18.25;;;;;35.04;30.89;98943.59;6276954;27;98083;-59
2022/08/02 11:47:54;;;;;;;;;22.00;19.80;;;;;35.17;31.88;98947.75;6276231;27;96747;-56
2022/08/02 11:51:06;;;;;;;;;22.80;20.40;;;;;35.33;31.55;98948.34;6272309;27;99107;-60
2022/08/02 11:54:11;;;;;;;;;21.40;21.00;;;;;35.39;31.11;98940.34;6284131;27;96796;-59
2022/08/02 11:57:18;;;;;;;;;22.60;21.00;;;;;35.39;31.28;98948.75;6291458;27;96698;-56
2022/08/02 12:00:23;;;;;;;;;21.00;20.60;;;;;35.43;30.73;98942.00;6291086;27;96518;-64
2022/08/02 12:03:36;;;;;;;;;19.00;19.00;;;;;35.43;30.50;98935.63;6291380;27;97274;-59
2022/08/02 12:06:40;;;;;;;;;17.00;16.00;;;;;35.44;30.37;98937.19;6291610;27;96523;-60
2022/08/02 12:09:45;;;;;;;;;19.60;18.00;;;;;35.48;30.35;98943.69;6291032;27;96948;-60
2022/08/02 12:12:49;;;;;;;;;17.00;16.00;;;;;35.54;30.14;98939.31;6290352;27;97050;-59
2022/08/02 12:19:17;;;;;;;;;17.80;15.00;;;;;35.51;30.11;98945.69;6278990;27;96962;-57
2022/08/02 12:19:18;;;;;;;;;17.80;16.20;;;;;35.45;30.12;98936.81;6287212;27;98020;-58
2022/08/02 12:22:25;;;;;;;;;20.00;19.00;;;;;35.46;30.66;98943.25;6290780;27;96538;-62
2022/08/02 12:25:31;;;;;;;;;21.00;19.00;;;;;35.51;31.07;98934.47;6284593;27;98101;-58
2022/08/02 12:28:39;;;;;;;;;22.00;19.60;;;;;35.56;31.15;98934.94;6289637;27;96993;-60
2022/08/02 12:31:46;;;;;;;;;24.00;21.40;;;;;35.56;31.62;98934.94;6280249;27;97415;-58
2022/08/02 12:35:07;;;;;;;;;22.75;20.00;;;;;35.62;30.67;98944.59;6290382;27;96965;-60
2022/08/02 12:38:13;;;;;;;;;25.40;23.40;;;;;35.63;29.96;98951.00;6289694;27;96955;-60
2022/08/02 12:41:18;;;;;;;;;21.00;19.00;;;;;35.61;30.32;98950.59;6289896;27;96679;-59
2022/08/02 12:44:37;;;;;;;;;21.20;20.20;;;;;35.56;30.41;98953.75;6286286;27;97456;-58
2022/08/02 12:47:45;;;;;;;;;23.00;23.00;;;;;35.49;30.29;98951.69;6290262;27;97174;-60
2022/08/02 12:50:48;;;;;;;;;21.60;19.60;;;;;35.51;30.54;98945.69;6276776;27;96897;-60
2022/08/02 12:53:53;;;;;;;;;21.50;19.50;;;;;35.56;30.41;98939.72;6286012;27;97058;-59
2022/08/02 12:57:12;;;;;;;;;17.25;17.25;;;;;35.60;30.16;98941.38;6290056;27;96582;-58
2022/08/02 13:00:24;;;;;;;;;20.40;20.00;;;;;35.60;29.99;98943.38;6288151;27;96359;-60
2022/08/02 13:03:28;;;;;;;;;21.20;19.20;;;;;35.58;30.94;98946.56;6269591;27;97410;-58
2022/08/02 13:06:51;;;;;;;;;22.00;20.00;;;;;35.58;31.06;98938.13;6284025;27;96489;-59
2022/08/02 13:09:55;;;;;;;;;21.00;21.00;;;;;35.64;30.93;98939.41;6279481;27;97427;-62
2022/08/02 13:13:07;;;;;;;;;22.40;21.40;;;;;35.68;30.18;98938.69;6289476;27;96554;-61
2022/08/02 13:16:11;;;;;;;;;24.00;22.75;;;;;35.68;29.66;98949.91;6289438;27;97490;-60
2022/08/02 13:19:15;;;;;;;;;25.60;23.00;;;;;35.63;29.71;98937.78;6289016;27;96747;-59
2022/08/02 13:22:18;;;;;;;;;19.00;18.00;;;;;35.63;30.45;98942.59;6277484;27;97412;-59
2022/08/02 13:25:23;;;;;;;;;19.50;19.50;;;;;35.59;29.94;98931.34;6274526;27;97242;-59
2022/08/02 13:28:28;;;;;;;;;20.00;19.00;;;;;35.66;29.95;98936.25;6273472;27;97383;-60
2022/08/02 13:31:32;;;;;;;;;20.00;20.00;;;;;35.66;29.33;98938.25;6275469;27;97407;-59
2022/08/02 13:34:39;;;;;;;;;20.00;18.20;;;;;35.66;29.34;98935.44;6284822;27;97540;-60
2022/08/02 13:37:43;;;;;;;;;17.60;16.60;;;;;35.63;29.69;98945.38;6289355;27;96959;-59
2022/08/02 13:44:08;;;;;;;;;18.50;18.50;;;;;35.66;29.68;98930.63;6288091;27;97397;-60
2022/08/02 13:47:13;;;;;;;;;19.50;19.00;;;;;35.71;30.83;98935.91;6269009;27;96620;-59
2022/08/02 13:50:36;;;;;;;;;20.40;20.00;;;;;35.75;30.12;98933.91;6262216;27;97390;-59
2022/08/02 13:53:39;;;;;;;;;20.80;20.00;;;;;35.79;29.21;98933.94;6263275;27;97530;-60
2022/08/02 13:56:43;;;;;;;;;18.00;16.80;;;;;35.83;29.85;98929.97;6263013;27;96511;-58
2022/08/02 13:59:48;;;;;;;;;20.00;18.40;;;;;35.87;29.44;98927.22;6263122;27;96381;-57
2022/08/02 14:02:59;;;;;;;;;19.00;18.00;;;;;35.84;28.85;98928.78;6263255;27;97501;-59
2022/08/02 14:06:05;;;;;;;;;16.00;15.00;;;;;35.75;29.21;98919.09;6268757;27;97455;-57
2022/08/02 14:09:09;;;;;;;;;16.40;16.40;;;;;35.73;29.25;98929.88;6282309;27;96647;-59
2022/08/02 14:12:19;;;;;;;;;12.20;11.60;;;;;35.65;28.69;98920.56;6288119;27;96397;-61
2022/08/02 14:15:23;;;;;;;;;11.60;11.00;;;;;35.62;28.92;98929.78;6286868;27;97420;-58
2022/08/02 14:18:32;;;;;;;;;11.25;11.25;;;;;35.59;28.52;98919.31;6288677;27;96525;-60
2022/08/02 14:21:35;;;;;;;;;11.40;11.40;;;;;35.57;29.15;98913.31;6288499;27;97452;-57
2022/08/02 14:24:49;;;;;;;;;8.60;8.60;;;;;35.55;29.33;98918.50;6286842;27;97576;-60
2022/08/02 14:27:53;;;;;;;;;11.00;11.00;;;;;35.51;28.82;98909.25;6286069;27;96643;-60